Time;durP1;ratioP1;P1;durP2;ratioP2;P2;SDS_P1;SDS_P2;PMS_P1;PMS_P2;Temp;Humidity;BMP_temperature;BMP_pressure;BME280_temperature;BME280_humidity;BME280_pressure;Samples;Min_cycle;Max_cycle;Signal;HPM_P1;HPM_P2
2021/08/31 00:02:01;;;;;;;;;;;;;;;;;;4998761;28;19917;-83
2021/08/31 00:04:27;;;;;;;;;;;;;;;;;;4999081;28;19945;-82
2021/08/31 00:06:52;;;;;;;;;;;;;;;;;;4999171;28;19975;-82
2021/08/31 00:09:19;;;;;;;;;;;;;;;;;;5015722;28;19913;-83
2021/08/31 00:11:45;;;;;;;;;;;;;;;;;;4992639;28;19936;-83
2021/08/31 00:14:11;;;;;;;;;;;;;;;;;;5025407;28;19917;-83
2021/08/31 00:16:36;;;;;;;;;;;;;;;;;;5015207;28;20007;-83
2021/08/31 00:19:02;;;;;;;;;;;;;;;;;;5015233;28;19912;-83
2021/08/31 00:21:28;;;;;;;;;;;;;;;;;;5015004;28;19909;-82
2021/08/31 00:23:53;;;;;;;;;;;;;;;;;;5015206;28;19960;-83
2021/08/31 00:26:19;;;;;;;;;;;;;;;;;;4998937;28;19948;-83
2021/08/31 00:28:44;;;;;;;;;;;;;;;;;;5014570;28;19940;-83
2021/08/31 00:31:09;;;;;;;;;;;;;;;;;;5014927;28;19920;-83
2021/08/31 00:33:35;;;;;;;;;;;;;;;;;;5031478;28;19932;-83
2021/08/31 00:36:03;;;;;;;;;;;;;;;;;;5015044;28;19982;-82
2021/08/31 00:38:29;;;;;;;;;;;;;;;;;;4999068;28;19923;-83
2021/08/31 00:40:54;;;;;;;;;;;;;;;;;;4998811;28;20020;-83
2021/08/31 00:43:19;;;;;;;;;;;;;;;;;;4998563;28;20363;-83
2021/08/31 00:45:45;;;;;;;;;;;;;;;;;;4998385;28;19913;-83
2021/08/31 00:48:10;;;;;;;;;;;;;;;;;;4997909;28;19927;-82
2021/08/31 00:50:35;;;;;;;;;;;;;;;;;;5014954;28;19913;-83
2021/08/31 00:53:01;;;;;;;;;;;;;;;;;;5031335;28;19924;-83
2021/08/31 00:55:26;;;;;;;;;;;;;;;;;;5014957;28;19909;-83
2021/08/31 00:57:51;;;;;;;;;;;;;;;;;;5030942;28;19912;-83
2021/08/31 01:00:17;;;;;;;;;;;;;;;;;;5014911;28;19916;-83
2021/08/31 01:02:42;;;;;;;;;;;;;;;;;;5013562;28;19952;-83
2021/08/31 01:05:08;;;;;;;;;;;;;;;;;;5013751;28;19917;-83
2021/08/31 01:07:33;;;;;;;;;;;;;;;;;;5004097;28;19917;-83
2021/08/31 01:10:02;;;;;;;;;;;;;;;;;;5031500;28;19920;-83
2021/08/31 01:12:27;;;;;;;;;;;;;;;;;;5031098;28;19915;-82
2021/08/31 01:14:53;;;;;;;;;;;;;;;;;;5030595;28;20286;-83
2021/08/31 01:17:18;;;;;;;;;;;;;;;;;;5030225;28;19913;-83
2021/08/31 01:19:43;;;;;;;;;;;;;;;;;;5014535;28;19913;-82
2021/08/31 01:22:10;;;;;;;;;;;;;;;;;;5014348;28;19917;-83
2021/08/31 01:24:36;;;;;;;;;;;;;;;;;;5014241;28;19970;-83
2021/08/31 01:27:01;;;;;;;;;;;;;;;;;;5012589;28;19917;-83
2021/08/31 01:29:27;;;;;;;;;;;;;;;;;;5010735;28;19921;-83
2021/08/31 01:31:53;;;;;;;;;;;;;;;;;;5034291;28;20317;-83
2021/08/31 01:34:18;;;;;;;;;;;;;;;;;;4997969;28;19909;-83
2021/08/31 01:36:43;;;;;;;;;;;;;;;;;;4997669;28;19909;-83
2021/08/31 01:39:09;;;;;;;;;;;;;;;;;;4997971;28;19913;-83
2021/08/31 01:41:34;;;;;;;;;;;;;;;;;;5015072;28;19916;-83
2021/08/31 01:43:59;;;;;;;;;;;;;;;;;;5013575;28;19913;-82
2021/08/31 01:46:25;;;;;;;;;;;;;;;;;;5014318;28;19909;-83
2021/08/31 01:48:50;;;;;;;;;;;;;;;;;;4999884;28;19964;-83
2021/08/31 01:51:16;;;;;;;;;;;;;;;;;;4999307;28;19924;-82
2021/08/31 01:53:41;;;;;;;;;;;;;;;;;;5030513;28;20055;-83
2021/08/31 01:56:06;;;;;;;;;;;;;;;;;;5010913;28;19913;-83
2021/08/31 01:58:32;;;;;;;;;;;;;;;;;;5012694;28;19913;-83
2021/08/31 02:00:57;;;;;;;;;;;;;;;;;;4996457;28;20278;-83
2021/08/31 02:03:22;;;;;;;;;;;;;;;;;;5013657;28;19914;-83
2021/08/31 02:05:48;;;;;;;;;;;;;;;;;;5014379;28;19913;-82
2021/08/31 02:08:13;;;;;;;;;;;;;;;;;;4997580;28;19913;-83
2021/08/31 02:10:40;;;;;;;;;;;;;;;;;;5030139;28;19924;-83
2021/08/31 02:13:06;;;;;;;;;;;;;;;;;;4997247;28;20019;-83
2021/08/31 02:15:31;;;;;;;;;;;;;;;;;;5014259;28;20329;-83
2021/08/31 02:17:57;;;;;;;;;;;;;;;;;;5013336;28;19963;-84
2021/08/31 02:20:23;;;;;;;;;;;;;;;;;;5013704;28;19948;-83
2021/08/31 02:22:48;;;;;;;;;;;;;;;;;;5012846;28;19964;-83
2021/08/31 02:25:13;;;;;;;;;;;;;;;;;;5013920;28;19912;-83
2021/08/31 02:27:39;;;;;;;;;;;;;;;;;;5012626;28;19968;-82
2021/08/31 02:30:04;;;;;;;;;;;;;;;;;;5030243;28;20012;-82
2021/08/31 02:32:30;;;;;;;;;;;;;;;;;;5013608;28;20441;-83
2021/08/31 02:34:55;;;;;;;;;;;;;;;;;;4996357;28;19968;-82
2021/08/31 02:37:20;;;;;;;;;;;;;;;;;;5015250;28;20291;-82
2021/08/31 02:39:46;;;;;;;;;;;;;;;;;;5017740;28;19927;-82
2021/08/31 02:42:11;;;;;;;;;;;;;;;;;;5000457;28;20048;-83
2021/08/31 02:44:36;;;;;;;;;;;;;;;;;;5033192;28;19913;-82
2021/08/31 02:47:02;;;;;;;;;;;;;;;;;;5016742;28;19909;-83
2021/08/31 02:49:27;;;;;;;;;;;;;;;;;;5033766;28;19913;-82
2021/08/31 02:51:52;;;;;;;;;;;;;;;;;;5000929;28;19986;-83
2021/08/31 02:54:18;;;;;;;;;;;;;;;;;;5012465;28;20012;-82
2021/08/31 02:56:43;;;;;;;;;;;;;;;;;;5000177;28;19913;-83
2021/08/31 02:59:08;;;;;;;;;;;;;;;;;;5000374;28;20007;-82
2021/08/31 03:01:35;;;;;;;;;;;;;;;;;;5000098;28;19940;-82
2021/08/31 03:04:01;;;;;;;;;;;;;;;;;;5017325;28;19909;-83
2021/08/31 03:06:26;;;;;;;;;;;;;;;;;;5016069;28;19928;-82
2021/08/31 03:08:52;;;;;;;;;;;;;;;;;;5016526;28;19939;-82
2021/08/31 03:11:17;;;;;;;;;;;;;;;;;;5032914;28;19913;-83
2021/08/31 03:13:42;;;;;;;;;;;;;;;;;;5012869;28;19928;-83
2021/08/31 03:16:09;;;;;;;;;;;;;;;;;;5012780;28;19920;-83
2021/08/31 03:18:34;;;;;;;;;;;;;;;;;;5013281;28;19913;-83
2021/08/31 03:20:59;;;;;;;;;;;;;;;;;;4996884;28;19917;-83
2021/08/31 03:23:24;;;;;;;;;;;;;;;;;;4997045;28;19918;-82
2021/08/31 03:25:50;;;;;;;;;;;;;;;;;;5025047;28;19959;-83
2021/08/31 03:28:15;;;;;;;;;;;;;;;;;;5029262;28;19920;-82
2021/08/31 03:30:40;;;;;;;;;;;;;;;;;;5032452;28;20004;-82
2021/08/31 03:33:06;;;;;;;;;;;;;;;;;;5018226;28;19921;-83
2021/08/31 03:35:31;;;;;;;;;;;;;;;;;;5029636;28;19924;-83
2021/08/31 03:37:56;;;;;;;;;;;;;;;;;;5032698;28;19913;-83
2021/08/31 03:40:21;;;;;;;;;;;;;;;;;;5015727;28;19913;-83
2021/08/31 03:42:47;;;;;;;;;;;;;;;;;;4999716;28;19919;-82
2021/08/31 03:45:13;;;;;;;;;;;;;;;;;;4999031;28;19920;-82
2021/08/31 03:47:38;;;;;;;;;;;;;;;;;;5014270;28;19919;-82
2021/08/31 03:50:04;;;;;;;;;;;;;;;;;;5040294;28;19921;-83
2021/08/31 03:52:29;;;;;;;;;;;;;;;;;;5016241;28;19913;-83
2021/08/31 03:54:54;;;;;;;;;;;;;;;;;;5015736;28;20003;-83
2021/08/31 03:57:20;;;;;;;;;;;;;;;;;;5031467;28;19963;-82
2021/08/31 03:59:45;;;;;;;;;;;;;;;;;;5031325;28;19912;-82
2021/08/31 04:02:10;;;;;;;;;;;;;;;;;;5015436;28;19925;-82
2021/08/31 04:04:36;;;;;;;;;;;;;;;;;;5032123;28;19971;-82
2021/08/31 04:07:01;;;;;;;;;;;;;;;;;;5015462;28;19917;-83
2021/08/31 04:09:26;;;;;;;;;;;;;;;;;;5014996;28;19952;-83
2021/08/31 04:11:52;;;;;;;;;;;;;;;;;;4999274;28;20288;-83
2021/08/31 04:14:17;;;;;;;;;;;;;;;;;;5015154;28;19909;-82
2021/08/31 04:16:42;;;;;;;;;;;;;;;;;;5015504;28;19913;-82
2021/08/31 04:19:08;;;;;;;;;;;;;;;;;;5031008;28;19916;-82
2021/08/31 04:21:33;;;;;;;;;;;;;;;;;;5015029;28;20316;-82
2021/08/31 04:23:58;;;;;;;;;;;;;;;;;;5014866;28;20342;-82
2021/08/31 04:26:24;;;;;;;;;;;;;;;;;;5015122;28;20007;-82
2021/08/31 04:28:49;;;;;;;;;;;;;;;;;;5014415;28;19962;-83
2021/08/31 04:31:14;;;;;;;;;;;;;;;;;;4998669;28;19917;-82
2021/08/31 04:33:40;;;;;;;;;;;;;;;;;;4995389;28;20287;-82
2021/08/31 04:36:05;;;;;;;;;;;;;;;;;;4995390;28;19909;-83
2021/08/31 04:38:30;;;;;;;;;;;;;;;;;;5021196;28;19916;-82
2021/08/31 04:40:56;;;;;;;;;;;;;;;;;;5031505;28;19921;-83
2021/08/31 04:43:26;;;;;;;;;;;;;;;;;;4998174;28;19913;-83
2021/08/31 04:45:51;;;;;;;;;;;;;;;;;;5031339;28;19920;-83
2021/08/31 04:48:17;;;;;;;;;;;;;;;;;;5031120;28;20326;-82
2021/08/31 04:50:42;;;;;;;;;;;;;;;;;;5015230;28;19918;-83
2021/08/31 04:53:07;;;;;;;;;;;;;;;;;;5014680;28;20285;-82
2021/08/31 04:55:33;;;;;;;;;;;;;;;;;;5014694;28;19912;-82
2021/08/31 04:57:58;;;;;;;;;;;;;;;;;;4997701;28;19912;-83
2021/08/31 05:00:23;;;;;;;;;;;;;;;;;;4998139;28;20278;-82
2021/08/31 05:02:50;;;;;;;;;;;;;;;;;;4998174;28;19956;-83
2021/08/31 05:05:15;;;;;;;;;;;;;;;;;;5014574;28;20004;-83
2021/08/31 05:07:40;;;;;;;;;;;;;;;;;;4998066;28;19963;-82
2021/08/31 05:10:07;;;;;;;;;;;;;;;;;;5011327;28;20436;-83
2021/08/31 05:12:32;;;;;;;;;;;;;;;;;;5027942;28;19909;-83
2021/08/31 05:14:57;;;;;;;;;;;;;;;;;;5011466;28;19952;-82
2021/08/31 05:17:23;;;;;;;;;;;;;;;;;;5011241;28;19998;-82
2021/08/31 05:19:48;;;;;;;;;;;;;;;;;;5030534;28;19913;-82
2021/08/31 05:22:13;;;;;;;;;;;;;;;;;;5014345;28;19913;-82
2021/08/31 05:24:39;;;;;;;;;;;;;;;;;;5014363;28;19917;-83
2021/08/31 05:27:05;;;;;;;;;;;;;;;;;;5014109;28;19913;-82
2021/08/31 05:29:30;;;;;;;;;;;;;;;;;;5013714;28;19917;-83
2021/08/31 05:31:55;;;;;;;;;;;;;;;;;;5013770;28;19956;-82
2021/08/31 05:34:21;;;;;;;;;;;;;;;;;;5030307;28;19917;-83
2021/08/31 05:36:46;;;;;;;;;;;;;;;;;;5010156;28;19918;-82
2021/08/31 05:39:11;;;;;;;;;;;;;;;;;;5027716;28;19913;-82
2021/08/31 05:41:37;;;;;;;;;;;;;;;;;;5027401;28;20360;-82
2021/08/31 05:44:02;;;;;;;;;;;;;;;;;;5011249;28;19921;-83
2021/08/31 05:46:28;;;;;;;;;;;;;;;;;;5010804;28;19914;-83
2021/08/31 05:48:53;;;;;;;;;;;;;;;;;;5024910;28;19967;-82
2021/08/31 05:51:18;;;;;;;;;;;;;;;;;;4997712;28;20279;-83
2021/08/31 05:53:44;;;;;;;;;;;;;;;;;;4997764;28;19920;-84
2021/08/31 05:56:10;;;;;;;;;;;;;;;;;;4998168;28;20355;-82
2021/08/31 05:58:35;;;;;;;;;;;;;;;;;;4996574;28;19920;-83
2021/08/31 06:01:00;;;;;;;;;;;;;;;;;;5013725;28;19921;-83
2021/08/31 06:03:26;;;;;;;;;;;;;;;;;;5013649;28;20371;-83
2021/08/31 06:05:51;;;;;;;;;;;;;;;;;;5014370;28;19947;-84
2021/08/31 06:08:17;;;;;;;;;;;;;;;;;;5012529;28;20020;-83
2021/08/31 06:10:42;;;;;;;;;;;;;;;;;;4998729;28;20030;-82
2021/08/31 06:13:08;;;;;;;;;;;;;;;;;;5015879;28;19940;-82
2021/08/31 06:15:33;;;;;;;;;;;;;;;;;;5017210;28;20355;-83
2021/08/31 06:17:58;;;;;;;;;;;;;;;;;;5033857;28;19916;-82
2021/08/31 06:20:24;;;;;;;;;;;;;;;;;;5016500;28;20453;-84
2021/08/31 06:22:49;;;;;;;;;;;;;;;;;;5017764;28;20353;-83
2021/08/31 06:25:15;;;;;;;;;;;;;;;;;;5001330;28;19909;-83
2021/08/31 06:27:40;;;;;;;;;;;;;;;;;;5001020;28;19908;-83
2021/08/31 06:30:05;;;;;;;;;;;;;;;;;;5015866;28;20429;-83
2021/08/31 06:32:31;;;;;;;;;;;;;;;;;;5037545;28;20005;-82
2021/08/31 06:34:56;;;;;;;;;;;;;;;;;;5026752;28;19999;-82
2021/08/31 06:37:21;;;;;;;;;;;;;;;;;;5000825;28;19909;-81
2021/08/31 06:39:47;;;;;;;;;;;;;;;;;;5001296;28;19959;-83
2021/08/31 06:42:12;;;;;;;;;;;;;;;;;;5001121;28;20343;-83
2021/08/31 06:44:38;;;;;;;;;;;;;;;;;;5000612;28;20007;-82
2021/08/31 06:47:05;;;;;;;;;;;;;;;;;;5000887;28;19909;-87
2021/08/31 06:49:32;;;;;;;;;;;;;;;;;;4998433;28;20011;-85
2021/08/31 06:51:57;;;;;;;;;;;;;;;;;;5025431;28;20003;-82
2021/08/31 06:54:23;;;;;;;;;;;;;;;;;;5033823;28;19940;-82
2021/08/31 06:56:48;;;;;;;;;;;;;;;;;;5026672;28;19995;-84
2021/08/31 06:59:13;;;;;;;;;;;;;;;;;;5040667;28;19940;-83
2021/08/31 07:01:39;;;;;;;;;;;;;;;;;;5033430;28;19913;-83
2021/08/31 07:04:05;;;;;;;;;;;;;;;;;;5029401;28;19920;-84
2021/08/31 07:06:30;;;;;;;;;;;;;;;;;;5016518;28;19912;-84
2021/08/31 07:08:56;;;;;;;;;;;;;;;;;;5016491;28;20294;-84
2021/08/31 07:11:22;;;;;;;;;;;;;;;;;;5016617;28;19917;-84
2021/08/31 07:13:47;;;;;;;;;;;;;;;;;;5016426;28;19920;-83
2021/08/31 07:16:13;;;;;;;;;;;;;;;;;;4999814;28;19913;-84
2021/08/31 07:18:39;;;;;;;;;;;;;;;;;;5000453;28;19915;-84
2021/08/31 07:21:04;;;;;;;;;;;;;;;;;;5015607;28;20375;-84
2021/08/31 07:23:30;;;;;;;;;;;;;;;;;;5016550;28;19921;-84
2021/08/31 07:25:55;;;;;;;;;;;;;;;;;;4985211;28;19914;-83
2021/08/31 07:28:20;;;;;;;;;;;;;;;;;;5031454;28;19917;-88
2021/08/31 07:30:46;;;;;;;;;;;;;;;;;;4993697;28;19922;-83
2021/08/31 07:33:11;;;;;;;;;;;;;;;;;;5016446;28;20359;-84
2021/08/31 07:35:38;;;;;;;;;;;;;;;;;;5016182;28;20003;-84
2021/08/31 07:38:03;;;;;;;;;;;;;;;;;;5016712;28;19909;-84
2021/08/31 07:40:29;;;;;;;;;;;;;;;;;;5016518;28;19916;-84
2021/08/31 07:42:54;;;;;;;;;;;;;;;;;;5016240;28;20283;-85
2021/08/31 07:45:20;;;;;;;;;;;;;;;;;;5016046;28;19914;-86
2021/08/31 07:47:46;;;;;;;;;;;;;;;;;;5014167;28;19928;-86
2021/08/31 07:50:11;;;;;;;;;;;;;;;;;;5000064;28;19982;-85
2021/08/31 07:52:37;;;;;;;;;;;;;;;;;;4999818;28;19913;-85
2021/08/31 07:55:03;;;;;;;;;;;;;;;;;;5016574;28;19913;-86
2021/08/31 07:57:29;;;;;;;;;;;;;;;;;;5015721;28;20028;-86
2021/08/31 07:59:57;;;;;;;;;;;;;;;;;;5000043;28;20275;-87
2021/08/31 08:02:22;;;;;;;;;;;;;;;;;;5016746;28;19913;-88
2021/08/31 08:04:51;;;;;;;;;;;;;;;;;;5016481;28;20003;-86
2021/08/31 08:07:19;;;;;;;;;;;;;;;;;;5000096;28;19955;-89
2021/08/31 08:09:46;;;;;;;;;;;;;;;;;;5016567;28;20326;-87
2021/08/31 08:12:12;;;;;;;;;;;;;;;;;;5000328;28;19913;-87
2021/08/31 08:14:39;;;;;;;;;;;;;;;;;;4999847;28;19916;-87
2021/08/31 08:17:05;;;;;;;;;;;;;;;;;;5000259;28;19913;-87
2021/08/31 08:19:30;;;;;;;;;;;;;;;;;;4996093;28;19956;-84
2021/08/31 08:21:57;;;;;;;;;;;;;;;;;;4996509;28;19921;-88
2021/08/31 08:24:22;;;;;;;;;;;;;;;;;;5016215;28;19909;-86
2021/08/31 08:26:52;;;;;;;;;;;;;;;;;;5032190;28;20278;-88
2021/08/31 08:29:17;;;;;;;;;;;;;;;;;;5031713;28;19917;-87
2021/08/31 08:31:46;;;;;;;;;;;;;;;;;;5035207;28;20263;-87
2021/08/31 08:34:12;;;;;;;;;;;;;;;;;;4999763;28;20015;-90
2021/08/31 08:36:37;;;;;;;;;;;;;;;;;;5016045;28;20007;-91
2021/08/31 08:39:03;;;;;;;;;;;;;;;;;;5016260;28;20003;-87
2021/08/31 08:41:28;;;;;;;;;;;;;;;;;;4998867;28;19942;-84
2021/08/31 08:43:59;;;;;;;;;;;;;;;;;;5014879;28;19920;-85
2021/08/31 08:46:25;;;;;;;;;;;;;;;;;;5015621;28;20382;-86
2021/08/31 08:48:50;;;;;;;;;;;;;;;;;;5001436;28;19913;-85
2021/08/31 08:51:15;;;;;;;;;;;;;;;;;;5007080;28;19913;-86
2021/08/31 08:53:41;;;;;;;;;;;;;;;;;;5030434;28;19928;-88
2021/08/31 08:56:07;;;;;;;;;;;;;;;;;;5031319;28;19920;-91
2021/08/31 08:58:32;;;;;;;;;;;;;;;;;;5031188;28;19913;-87
2021/08/31 09:01:04;;;;;;;;;;;;;;;;;;5031178;28;19924;-85
2021/08/31 09:03:33;;;;;;;;;;;;;;;;;;5015675;28;20360;-88
2021/08/31 09:06:09;;;;;;;;;;;;;;;;;;5015843;28;19913;-94
2021/08/31 09:08:35;;;;;;;;;;;;;;;;;;5015862;28;19959;-89
2021/08/31 09:11:22;;;;;;;;;;;;;;;;;;4999808;28;19909;-92
2021/08/31 09:13:49;;;;;;;;;;;;;;;;;;5014733;28;20319;-90
2021/08/31 09:16:22;;;;;;;;;;;;;;;;;;4999828;28;19909;-90
2021/08/31 09:18:55;;;;;;;;;;;;;;;;;;4999961;28;19920;-91
2021/08/31 09:21:23;;;;;;;;;;;;;;;;;;4999994;28;20367;-92
2021/08/31 09:23:50;;;;;;;;;;;;;;;;;;5016373;28;19935;-92
2021/08/31 09:26:18;;;;;;;;;;;;;;;;;;4999674;28;19913;-92
2021/08/31 09:28:44;;;;;;;;;;;;;;;;;;4999418;28;19913;-88
2021/08/31 09:31:13;;;;;;;;;;;;;;;;;;5015464;28;19919;-88
2021/08/31 09:33:48;;;;;;;;;;;;;;;;;;5031674;28;20322;-85
2021/08/31 09:36:15;;;;;;;;;;;;;;;;;;5030761;28;19919;-85
2021/08/31 09:38:41;;;;;;;;;;;;;;;;;;5030974;28;19928;-82
2021/08/31 09:41:07;;;;;;;;;;;;;;;;;;5030706;28;19917;-90
2021/08/31 09:43:35;;;;;;;;;;;;;;;;;;5032389;28;19913;-89
2021/08/31 09:46:02;;;;;;;;;;;;;;;;;;5053120;28;19975;-89
2021/08/31 09:48:33;;;;;;;;;;;;;;;;;;5035998;28;19948;-89
2021/08/31 09:50:59;;;;;;;;;;;;;;;;;;5003204;28;19995;-88
2021/08/31 09:53:25;;;;;;;;;;;;;;;;;;5018540;28;19916;-81
2021/08/31 09:56:06;;;;;;;;;;;;;;;;;;5018340;28;19909;-81
2021/08/31 09:58:33;;;;;;;;;;;;;;;;;;5017535;28;19975;-81
2021/08/31 10:00:58;;;;;;;;;;;;;;;;;;5018025;28;20425;-83
2021/08/31 10:03:24;;;;;;;;;;;;;;;;;;5033397;28;19917;-82
2021/08/31 10:05:50;;;;;;;;;;;;;;;;;;5001404;28;20003;-82
2021/08/31 10:08:16;;;;;;;;;;;;;;;;;;5029040;28;20330;-82
2021/08/31 10:10:42;;;;;;;;;;;;;;;;;;4992541;28;19971;-84
2021/08/31 10:13:09;;;;;;;;;;;;;;;;;;5008564;28;20363;-83
2021/08/31 10:15:38;;;;;;;;;;;;;;;;;;5017882;28;19909;-83
2021/08/31 10:18:04;;;;;;;;;;;;;;;;;;5002191;28;19999;-83
2021/08/31 10:20:30;;;;;;;;;;;;;;;;;;5001600;28;20015;-82
2021/08/31 10:22:58;;;;;;;;;;;;;;;;;;5001349;28;20469;-83
2021/08/31 10:25:24;;;;;;;;;;;;;;;;;;5032855;28;20252;-83
2021/08/31 10:27:50;;;;;;;;;;;;;;;;;;5017179;28;19913;-83
2021/08/31 10:30:21;;;;;;;;;;;;;;;;;;5034125;28;19988;-82
2021/08/31 10:32:51;;;;;;;;;;;;;;;;;;5041485;28;19909;-82
2021/08/31 10:35:35;;;;;;;;;;;;;;;;;;5001045;28;20357;-83
2021/08/31 10:38:01;;;;;;;;;;;;;;;;;;5016577;28;20008;-83
2021/08/31 10:40:30;;;;;;;;;;;;;;;;;;5017315;28;20036;-83
2021/08/31 10:42:55;;;;;;;;;;;;;;;;;;5016937;28;19917;-85
2021/08/31 10:45:24;;;;;;;;;;;;;;;;;;5000532;28;20097;-84
2021/08/31 10:47:49;;;;;;;;;;;;;;;;;;5015926;28;19912;-83
2021/08/31 10:50:15;;;;;;;;;;;;;;;;;;5017043;28;19926;-84
2021/08/31 10:52:45;;;;;;;;;;;;;;;;;;5001011;28;19939;-84
2021/08/31 10:55:29;;;;;;;;;;;;;;;;;;5016760;28;19935;-83
2021/08/31 10:57:54;;;;;;;;;;;;;;;;;;5016841;28;19909;-84
2021/08/31 11:00:20;;;;;;;;;;;;;;;;;;5033923;28;19963;-84
2021/08/31 11:02:48;;;;;;;;;;;;;;;;;;5035047;28;19916;-85
2021/08/31 11:05:34;;;;;;;;;;;;;;;;;;5016496;28;19996;-85
2021/08/31 11:07:59;;;;;;;;;;;;;;;;;;5032257;28;19920;-84
2021/08/31 11:10:43;;;;;;;;;;;;;;;;;;5033589;28;19913;-83
2021/08/31 11:13:21;;;;;;;;;;;;;;;;;;5000119;28;19971;-84
2021/08/31 11:15:47;;;;;;;;;;;;;;;;;;4999805;28;20024;-84
2021/08/31 11:18:13;;;;;;;;;;;;;;;;;;5017025;28;19913;-84
2021/08/31 11:20:39;;;;;;;;;;;;;;;;;;5000696;28;19909;-85
2021/08/31 11:23:21;;;;;;;;;;;;;;;;;;5016374;28;19909;-83
2021/08/31 11:25:51;;;;;;;;;;;;;;;;;;5000949;28;19916;-88
2021/08/31 11:28:17;;;;;;;;;;;;;;;;;;5000105;28;19919;-81
2021/08/31 11:30:45;;;;;;;;;;;;;;;;;;5016681;28;19913;-81
2021/08/31 11:33:15;;;;;;;;;;;;;;;;;;5049215;28;19909;-81
2021/08/31 11:35:41;;;;;;;;;;;;;;;;;;5049374;28;19913;-82
2021/08/31 11:38:06;;;;;;;;;;;;;;;;;;5044680;28;19924;-82
2021/08/31 11:40:31;;;;;;;;;;;;;;;;;;5032316;28;20015;-82
2021/08/31 11:42:57;;;;;;;;;;;;;;;;;;5032474;28;19917;-81
2021/08/31 11:45:43;;;;;;;;;;;;;;;;;;5033219;28;19909;-82
2021/08/31 11:48:08;;;;;;;;;;;;;;;;;;5031716;28;19917;-83
2021/08/31 11:50:34;;;;;;;;;;;;;;;;;;4999569;28;19908;-81
2021/08/31 11:53:12;;;;;;;;;;;;;;;;;;5016079;28;20028;-81
2021/08/31 11:55:37;;;;;;;;;;;;;;;;;;5000010;28;19920;-82
2021/08/31 11:58:03;;;;;;;;;;;;;;;;;;5032003;28;20305;-81
2021/08/31 12:00:41;;;;;;;;;;;;;;;;;;5015434;28;20007;-81
2021/08/31 12:03:23;;;;;;;;;;;;;;;;;;4999505;28;19952;-82
2021/08/31 12:05:53;;;;;;;;;;;;;;;;;;5014355;28;19909;-81
2021/08/31 12:08:18;;;;;;;;;;;;;;;;;;5014360;28;20366;-82
2021/08/31 12:10:44;;;;;;;;;;;;;;;;;;4999272;28;19920;-81
2021/08/31 12:13:09;;;;;;;;;;;;;;;;;;5032171;28;19921;-81
2021/08/31 12:15:35;;;;;;;;;;;;;;;;;;5015840;28;19909;-81
2021/08/31 12:18:07;;;;;;;;;;;;;;;;;;5015260;28;19921;-81
2021/08/31 12:20:33;;;;;;;;;;;;;;;;;;4998891;28;19963;-81
2021/08/31 12:23:02;;;;;;;;;;;;;;;;;;4998989;28;19916;-81
2021/08/31 12:25:35;;;;;;;;;;;;;;;;;;5015654;28;19921;-81
2021/08/31 12:28:01;;;;;;;;;;;;;;;;;;5015187;28;20355;-82
2021/08/31 12:30:36;;;;;;;;;;;;;;;;;;5014844;28;19916;-84
2021/08/31 12:33:04;;;;;;;;;;;;;;;;;;5027834;28;19931;-81
2021/08/31 12:38:04;;;;;;;;;;;;;;;;;;5015233;28;19928;-81
2021/08/31 12:40:29;;;;;;;;;;;;;;;;;;5012257;28;20437;-82
2021/08/31 12:43:02;;;;;;;;;;;;;;;;;;4997604;28;19921;-81
2021/08/31 12:45:28;;;;;;;;;;;;;;;;;;5013835;28;20363;-82
2021/08/31 12:47:54;;;;;;;;;;;;;;;;;;4998230;28;19966;-82
2021/08/31 12:50:19;;;;;;;;;;;;;;;;;;5011566;28;19909;-81
2021/08/31 12:52:45;;;;;;;;;;;;;;;;;;4995893;28;20256;-81
2021/08/31 12:55:16;;;;;;;;;;;;;;;;;;4979099;28;19909;-81
2021/08/31 12:57:42;;;;;;;;;;;;;;;;;;4978900;28;19913;-81
2021/08/31 13:00:27;;;;;;;;;;;;;;;;;;4979164;28;20395;-81
2021/08/31 13:02:55;;;;;;;;;;;;;;;;;;5011271;28;20000;-81
2021/08/31 13:05:20;;;;;;;;;;;;;;;;;;4995358;28;20287;-82
2021/08/31 13:07:46;;;;;;;;;;;;;;;;;;5011471;28;19913;-81
2021/08/31 13:10:16;;;;;;;;;;;;;;;;;;4978913;28;19928;-81
2021/08/31 13:12:43;;;;;;;;;;;;;;;;;;4978747;28;19917;-80
2021/08/31 13:15:09;;;;;;;;;;;;;;;;;;5030402;28;19921;-80
2021/08/31 13:17:34;;;;;;;;;;;;;;;;;;5031372;28;20367;-81
2021/08/31 13:20:00;;;;;;;;;;;;;;;;;;5014354;28;20371;-79
2021/08/31 13:22:25;;;;;;;;;;;;;;;;;;5031156;28;19913;-80
2021/08/31 13:24:50;;;;;;;;;;;;;;;;;;5021254;28;19913;-80
2021/08/31 13:27:15;;;;;;;;;;;;;;;;;;5005347;28;19913;-80
2021/08/31 13:29:41;;;;;;;;;;;;;;;;;;5030802;28;19913;-80
2021/08/31 13:32:07;;;;;;;;;;;;;;;;;;5013073;28;20358;-81
2021/08/31 13:34:32;;;;;;;;;;;;;;;;;;5046848;28;19913;-81
2021/08/31 13:36:57;;;;;;;;;;;;;;;;;;5014537;28;19923;-80
2021/08/31 13:39:24;;;;;;;;;;;;;;;;;;5030283;28;19914;-79
2021/08/31 13:41:49;;;;;;;;;;;;;;;;;;5030295;28;19924;-80
2021/08/31 13:44:15;;;;;;;;;;;;;;;;;;5014607;28;19912;-80
2021/08/31 13:46:40;;;;;;;;;;;;;;;;;;5030308;28;20433;-80
2021/08/31 13:49:06;;;;;;;;;;;;;;;;;;4994934;28;19935;-80
2021/08/31 13:51:31;;;;;;;;;;;;;;;;;;4996666;28;19917;-79
2021/08/31 13:53:56;;;;;;;;;;;;;;;;;;4998130;28;19920;-79
2021/08/31 13:56:22;;;;;;;;;;;;;;;;;;5030364;28;19921;-80
2021/08/31 13:58:47;;;;;;;;;;;;;;;;;;4994045;28;19920;-80
2021/08/31 14:01:12;;;;;;;;;;;;;;;;;;4994685;28;20323;-80
2021/08/31 14:03:38;;;;;;;;;;;;;;;;;;4998803;28;19967;-80
2021/08/31 14:06:03;;;;;;;;;;;;;;;;;;5013310;28;20367;-80
2021/08/31 14:08:28;;;;;;;;;;;;;;;;;;5013794;28;20278;-80
2021/08/31 14:10:54;;;;;;;;;;;;;;;;;;5014161;28;19913;-80
2021/08/31 14:13:19;;;;;;;;;;;;;;;;;;5014283;28;19955;-79
2021/08/31 14:15:46;;;;;;;;;;;;;;;;;;5030565;28;20379;-80
2021/08/31 14:18:13;;;;;;;;;;;;;;;;;;5010510;28;19992;-79
2021/08/31 14:20:38;;;;;;;;;;;;;;;;;;5013453;28;19925;-79
2021/08/31 14:23:03;;;;;;;;;;;;;;;;;;5029773;28;19916;-80
2021/08/31 14:25:29;;;;;;;;;;;;;;;;;;5028940;28;19909;-80
2021/08/31 14:27:54;;;;;;;;;;;;;;;;;;5029625;28;19908;-80
2021/08/31 14:30:19;;;;;;;;;;;;;;;;;;5014523;28;19913;-80
2021/08/31 14:32:45;;;;;;;;;;;;;;;;;;5029576;28;20007;-79
2021/08/31 14:35:10;;;;;;;;;;;;;;;;;;5030636;28;20000;-80
2021/08/31 14:37:36;;;;;;;;;;;;;;;;;;5030762;28;19917;-80
2021/08/31 14:40:01;;;;;;;;;;;;;;;;;;5030803;28;19924;-80
2021/08/31 14:42:27;;;;;;;;;;;;;;;;;;5014128;28;19924;-79
2021/08/31 14:44:52;;;;;;;;;;;;;;;;;;5014152;28;19910;-79
2021/08/31 14:47:17;;;;;;;;;;;;;;;;;;5031895;28;19959;-79
2021/08/31 14:49:44;;;;;;;;;;;;;;;;;;5001306;28;19909;-79
2021/08/31 14:52:09;;;;;;;;;;;;;;;;;;5017210;28;19916;-79
2021/08/31 14:54:34;;;;;;;;;;;;;;;;;;5017092;28;20588;-80
2021/08/31 14:57:00;;;;;;;;;;;;;;;;;;5015642;28;19925;-79
2021/08/31 14:59:25;;;;;;;;;;;;;;;;;;5016268;28;19912;-79
2021/08/31 15:01:51;;;;;;;;;;;;;;;;;;5017068;28;20386;-79
2021/08/31 15:04:17;;;;;;;;;;;;;;;;;;5000866;28;19912;-80
2021/08/31 15:06:43;;;;;;;;;;;;;;;;;;5016569;28;19916;-80
2021/08/31 15:09:08;;;;;;;;;;;;;;;;;;5016436;28;19920;-80
2021/08/31 15:11:34;;;;;;;;;;;;;;;;;;5000666;28;19913;-79
2021/08/31 15:13:59;;;;;;;;;;;;;;;;;;5016629;28;19962;-80
2021/08/31 15:16:24;;;;;;;;;;;;;;;;;;5016441;28;20389;-80
2021/08/31 15:18:50;;;;;;;;;;;;;;;;;;5016894;28;19913;-79
2021/08/31 15:21:15;;;;;;;;;;;;;;;;;;5016584;28;19909;-79
2021/08/31 15:23:41;;;;;;;;;;;;;;;;;;5033194;28;20275;-79
2021/08/31 15:26:06;;;;;;;;;;;;;;;;;;5017230;28;19913;-79
2021/08/31 15:28:31;;;;;;;;;;;;;;;;;;5015998;28;19913;-79
2021/08/31 15:30:57;;;;;;;;;;;;;;;;;;5028749;28;19916;-79
2021/08/31 15:33:22;;;;;;;;;;;;;;;;;;5033839;28;19917;-80
2021/08/31 15:35:47;;;;;;;;;;;;;;;;;;5032518;28;19920;-79
2021/08/31 15:38:12;;;;;;;;;;;;;;;;;;5032458;28;20375;-80
2021/08/31 15:40:38;;;;;;;;;;;;;;;;;;5013353;28;19920;-80
2021/08/31 15:43:03;;;;;;;;;;;;;;;;;;5017698;28;19935;-79
2021/08/31 15:45:28;;;;;;;;;;;;;;;;;;5015480;28;19913;-80
2021/08/31 15:47:54;;;;;;;;;;;;;;;;;;5015762;28;19908;-80
2021/08/31 15:50:19;;;;;;;;;;;;;;;;;;5049142;28;19913;-80
2021/08/31 15:52:45;;;;;;;;;;;;;;;;;;5032229;28;20371;-80
2021/08/31 15:55:10;;;;;;;;;;;;;;;;;;5031906;28;20390;-79
2021/08/31 15:57:36;;;;;;;;;;;;;;;;;;5023394;28;20020;-80
2021/08/31 16:00:01;;;;;;;;;;;;;;;;;;5029388;28;20256;-80
2021/08/31 16:02:27;;;;;;;;;;;;;;;;;;5026449;28;19948;-79
2021/08/31 16:04:52;;;;;;;;;;;;;;;;;;5047095;28;19917;-80
2021/08/31 16:07:17;;;;;;;;;;;;;;;;;;5020877;28;19916;-80
2021/08/31 16:09:46;;;;;;;;;;;;;;;;;;4999671;28;19917;-80
2021/08/31 16:12:11;;;;;;;;;;;;;;;;;;5031906;28;20367;-80
2021/08/31 16:14:37;;;;;;;;;;;;;;;;;;5015490;28;19978;-79
2021/08/31 16:17:02;;;;;;;;;;;;;;;;;;5015545;28;19948;-79
2021/08/31 16:19:28;;;;;;;;;;;;;;;;;;5015762;28;19909;-79
2021/08/31 16:21:53;;;;;;;;;;;;;;;;;;5015440;28;19913;-80
2021/08/31 16:24:19;;;;;;;;;;;;;;;;;;5015327;28;20394;-80
2021/08/31 16:26:44;;;;;;;;;;;;;;;;;;5012767;28;20331;-80
2021/08/31 16:29:09;;;;;;;;;;;;;;;;;;5032164;28;20008;-81
2021/08/31 16:31:35;;;;;;;;;;;;;;;;;;5033586;28;19912;-81
2021/08/31 16:34:00;;;;;;;;;;;;;;;;;;5000758;28;19938;-80
2021/08/31 16:36:25;;;;;;;;;;;;;;;;;;5014922;28;20346;-81
2021/08/31 16:38:51;;;;;;;;;;;;;;;;;;5031915;28;19913;-80
2021/08/31 16:41:16;;;;;;;;;;;;;;;;;;5014507;28;19929;-79
2021/08/31 16:43:41;;;;;;;;;;;;;;;;;;5015480;28;20383;-80